Parson, Canada
Current Conditions -  °F | °C
As of 6:00 PM on Saturday 25 Oct 2014 (Local Time) from CYGE Reporting Station
Rain Showers Rain Showers  
Wind Chill: 32°   Ceiling: 6500
Heat Index: 37°   Visibility: 20mi
Dew Point: 36°   Wind: 7mph
Humidity: 93%   Direction: 320°NW
Pressure: 29.6"   Gusts: NA
Location:  51.1°N, 116.7°W
Report Text: CYGE 260000Z 32006KT 280V350 20SM -SHRA VCFG FEW004 BKN065 OVC090 03/02 A2960 RMK ST1SC5AS2 LAST OBS/NEXT 261200Z SLP049
Loading
Personal Weather Stations






























Interactive Weather Map
Tropical Storm Tracking
New forecast layout! Learn more

10-Day Weather Forecast

Advertisements
Track Severe Weather on mobile